sensor_id;sensor_type;location;lat;lon;timestamp;P1;durP1;ratioP1;P2;durP2;ratioP2
1593;SDS011;790;47.000;16.084;2023-02-17T00:01:26;24.37;;;17.37;;
1593;SDS011;790;47.000;16.084;2023-02-17T00:03:54;25.87;;;17.30;;
1593;SDS011;790;47.000;16.084;2023-02-17T00:06:23;29.87;;;18.30;;
1593;SDS011;790;47.000;16.084;2023-02-17T00:08:51;27.37;;;18.20;;
1593;SDS011;790;47.000;16.084;2023-02-17T00:11:19;27.57;;;18.47;;
1593;SDS011;790;47.000;16.084;2023-02-17T00:13:46;28.60;;;17.90;;
1593;SDS011;790;47.000;16.084;2023-02-17T00:16:17;24.20;;;17.40;;
1593;SDS011;790;47.000;16.084;2023-02-17T00:18:45;22.10;;;16.70;;
1593;SDS011;790;47.000;16.084;2023-02-17T00:21:13;23.87;;;17.00;;
1593;SDS011;790;47.000;16.084;2023-02-17T00:23:42;23.60;;;16.93;;
1593;SDS011;790;47.000;16.084;2023-02-17T00:26:10;23.50;;;17.07;;
1593;SDS011;790;47.000;16.084;2023-02-17T00:28:37;21.03;;;15.63;;
1593;SDS011;790;47.000;16.084;2023-02-17T00:31:05;24.13;;;15.70;;
1593;SDS011;790;47.000;16.084;2023-02-17T00:33:35;20.60;;;15.93;;
1593;SDS011;790;47.000;16.084;2023-02-17T00:36:03;21.67;;;15.43;;
1593;SDS011;790;47.000;16.084;2023-02-17T00:38:31;23.90;;;16.23;;
1593;SDS011;790;47.000;16.084;2023-02-17T00:40:59;24.00;;;16.23;;
1593;SDS011;790;47.000;16.084;2023-02-17T00:43:26;25.17;;;15.40;;
1593;SDS011;790;47.000;16.084;2023-02-17T00:45:53;22.00;;;15.53;;
1593;SDS011;790;47.000;16.084;2023-02-17T00:48:21;22.80;;;15.13;;
1593;SDS011;790;47.000;16.084;2023-02-17T00:50:50;23.13;;;15.80;;
1593;SDS011;790;47.000;16.084;2023-02-17T00:53:17;22.17;;;16.00;;
1593;SDS011;790;47.000;16.084;2023-02-17T00:55:44;19.70;;;14.83;;
1593;SDS011;790;47.000;16.084;2023-02-17T00:58:11;19.80;;;14.70;;
1593;SDS011;790;47.000;16.084;2023-02-17T01:00:39;22.73;;;15.27;;
1593;SDS011;790;47.000;16.084;2023-02-17T01:03:09;24.73;;;16.10;;
1593;SDS011;790;47.000;16.084;2023-02-17T01:05:38;21.63;;;15.40;;
1593;SDS011;790;47.000;16.084;2023-02-17T01:08:08;26.77;;;15.90;;
1593;SDS011;790;47.000;16.084;2023-02-17T01:10:36;21.87;;;15.57;;
1593;SDS011;790;47.000;16.084;2023-02-17T01:13:04;23.43;;;15.97;;
1593;SDS011;790;47.000;16.084;2023-02-17T01:15:31;23.37;;;15.23;;
1593;SDS011;790;47.000;16.084;2023-02-17T01:18:03;20.53;;;14.90;;
1593;SDS011;790;47.000;16.084;2023-02-17T01:20:33;24.13;;;16.20;;
1593;SDS011;790;47.000;16.084;2023-02-17T01:23:00;22.13;;;16.10;;
1593;SDS011;790;47.000;16.084;2023-02-17T01:25:29;20.60;;;15.20;;
1593;SDS011;790;47.000;16.084;2023-02-17T01:27:56;22.17;;;15.93;;
1593;SDS011;790;47.000;16.084;2023-02-17T01:30:23;23.53;;;16.00;;
1593;SDS011;790;47.000;16.084;2023-02-17T01:32:51;22.87;;;15.90;;
1593;SDS011;790;47.000;16.084;2023-02-17T01:35:20;21.00;;;15.63;;
1593;SDS011;790;47.000;16.084;2023-02-17T01:37:47;24.07;;;15.23;;
1593;SDS011;790;47.000;16.084;2023-02-17T01:40:15;22.17;;;15.87;;
1593;SDS011;790;47.000;16.084;2023-02-17T01:42:48;24.37;;;15.93;;
1593;SDS011;790;47.000;16.084;2023-02-17T01:45:35;20.37;;;15.13;;
1593;SDS011;790;47.000;16.084;2023-02-17T01:48:06;22.00;;;15.30;;
1593;SDS011;790;47.000;16.084;2023-02-17T01:50:37;25.27;;;17.23;;
1593;SDS011;790;47.000;16.084;2023-02-17T01:53:08;24.77;;;17.07;;
1593;SDS011;790;47.000;16.084;2023-02-17T01:55:38;24.50;;;17.60;;
1593;SDS011;790;47.000;16.084;2023-02-17T01:58:08;25.43;;;17.17;;
1593;SDS011;790;47.000;16.084;2023-02-17T02:00:37;26.13;;;17.57;;
1593;SDS011;790;47.000;16.084;2023-02-17T02:03:05;21.73;;;16.00;;
1593;SDS011;790;47.000;16.084;2023-02-17T02:05:36;23.33;;;17.03;;
1593;SDS011;790;47.000;16.084;2023-02-17T02:08:05;23.50;;;16.87;;
1593;SDS011;790;47.000;16.084;2023-02-17T02:13:03;29.00;;;17.33;;
1593;SDS011;790;47.000;16.084;2023-02-17T02:15:33;22.03;;;16.40;;
1593;SDS011;790;47.000;16.084;2023-02-17T02:18:12;24.17;;;17.23;;
1593;SDS011;790;47.000;16.084;2023-02-17T02:20:54;22.73;;;15.73;;
1593;SDS011;790;47.000;16.084;2023-02-17T02:23:57;25.47;;;16.87;;
1593;SDS011;790;47.000;16.084;2023-02-17T02:26:48;25.40;;;17.50;;
1593;SDS011;790;47.000;16.084;2023-02-17T02:30:02;24.83;;;17.07;;
1593;SDS011;790;47.000;16.084;2023-02-17T02:33:08;21.10;;;16.43;;
1593;SDS011;790;47.000;16.084;2023-02-17T02:35:51;24.50;;;16.90;;
1593;SDS011;790;47.000;16.084;2023-02-17T02:38:25;21.03;;;15.80;;
1593;SDS011;790;47.000;16.084;2023-02-17T02:40:58;24.13;;;17.57;;
1593;SDS011;790;47.000;16.084;2023-02-17T02:43:30;28.93;;;18.27;;
1593;SDS011;790;47.000;16.084;2023-02-17T02:45:58;24.90;;;17.07;;
1593;SDS011;790;47.000;16.084;2023-02-17T02:48:26;25.17;;;17.80;;
1593;SDS011;790;47.000;16.084;2023-02-17T02:50:56;27.80;;;18.37;;
1593;SDS011;790;47.000;16.084;2023-02-17T02:53:40;25.50;;;17.97;;
1593;SDS011;790;47.000;16.084;2023-02-17T02:56:18;25.87;;;17.77;;
1593;SDS011;790;47.000;16.084;2023-02-17T02:58:55;26.10;;;18.93;;
1593;SDS011;790;47.000;16.084;2023-02-17T03:01:29;26.13;;;18.43;;
1593;SDS011;790;47.000;16.084;2023-02-17T03:04:06;25.97;;;17.13;;
1593;SDS011;790;47.000;16.084;2023-02-17T03:06:40;24.60;;;18.03;;
1593;SDS011;790;47.000;16.084;2023-02-17T03:09:11;26.20;;;18.70;;
1593;SDS011;790;47.000;16.084;2023-02-17T03:11:42;25.47;;;18.43;;
1593;SDS011;790;47.000;16.084;2023-02-17T03:14:13;25.90;;;18.47;;
1593;SDS011;790;47.000;16.084;2023-02-17T03:16:42;29.83;;;19.07;;
1593;SDS011;790;47.000;16.084;2023-02-17T03:19:12;28.37;;;18.80;;
1593;SDS011;790;47.000;16.084;2023-02-17T03:21:41;25.43;;;18.23;;
1593;SDS011;790;47.000;16.084;2023-02-17T03:24:13;26.03;;;17.50;;
1593;SDS011;790;47.000;16.084;2023-02-17T03:26:40;25.23;;;18.33;;
1593;SDS011;790;47.000;16.084;2023-02-17T03:29:07;28.70;;;18.67;;
1593;SDS011;790;47.000;16.084;2023-02-17T03:31:35;25.67;;;19.07;;
1593;SDS011;790;47.000;16.084;2023-02-17T03:34:02;30.17;;;19.47;;
1593;SDS011;790;47.000;16.084;2023-02-17T03:36:31;26.03;;;18.53;;
1593;SDS011;790;47.000;16.084;2023-02-17T03:38:58;25.57;;;18.47;;
1593;SDS011;790;47.000;16.084;2023-02-17T03:41:25;26.83;;;19.07;;
1593;SDS011;790;47.000;16.084;2023-02-17T03:43:53;26.30;;;18.83;;
1593;SDS011;790;47.000;16.084;2023-02-17T03:46:20;27.50;;;19.23;;
1593;SDS011;790;47.000;16.084;2023-02-17T03:48:47;26.03;;;19.17;;
1593;SDS011;790;47.000;16.084;2023-02-17T03:51:15;28.10;;;19.23;;
1593;SDS011;790;47.000;16.084;2023-02-17T03:53:46;30.80;;;19.43;;
1593;SDS011;790;47.000;16.084;2023-02-17T03:56:15;25.40;;;18.80;;
1593;SDS011;790;47.000;16.084;2023-02-17T03:58:43;28.40;;;19.67;;
1593;SDS011;790;47.000;16.084;2023-02-17T04:01:10;24.77;;;18.13;;
1593;SDS011;790;47.000;16.084;2023-02-17T04:03:40;27.13;;;19.37;;
1593;SDS011;790;47.000;16.084;2023-02-17T04:06:10;28.17;;;19.93;;
1593;SDS011;790;47.000;16.084;2023-02-17T04:08:38;23.63;;;17.57;;
1593;SDS011;790;47.000;16.084;2023-02-17T04:11:07;24.33;;;18.60;;
1593;SDS011;790;47.000;16.084;2023-02-17T04:13:35;24.60;;;17.60;;
1593;SDS011;790;47.000;16.084;2023-02-17T04:16:03;25.67;;;17.50;;
1593;SDS011;790;47.000;16.084;2023-02-17T04:18:32;23.13;;;17.37;;
1593;SDS011;790;47.000;16.084;2023-02-17T04:20:59;23.47;;;16.93;;
1593;SDS011;790;47.000;16.084;2023-02-17T04:23:27;22.97;;;17.57;;
1593;SDS011;790;47.000;16.084;2023-02-17T04:25:54;23.37;;;17.30;;
1593;SDS011;790;47.000;16.084;2023-02-17T04:28:23;25.57;;;17.63;;
1593;SDS011;790;47.000;16.084;2023-02-17T04:30:50;22.40;;;15.97;;
1593;SDS011;790;47.000;16.084;2023-02-17T04:33:17;22.67;;;17.07;;
1593;SDS011;790;47.000;16.084;2023-02-17T04:35:45;22.83;;;16.40;;
1593;SDS011;790;47.000;16.084;2023-02-17T04:38:13;23.60;;;17.13;;
1593;SDS011;790;47.000;16.084;2023-02-17T04:40:41;22.13;;;16.43;;
1593;SDS011;790;47.000;16.084;2023-02-17T04:43:08;24.07;;;16.83;;
1593;SDS011;790;47.000;16.084;2023-02-17T04:45:37;23.60;;;16.90;;
1593;SDS011;790;47.000;16.084;2023-02-17T04:48:05;25.37;;;17.13;;
1593;SDS011;790;47.000;16.084;2023-02-17T04:50:32;24.17;;;16.60;;
1593;SDS011;790;47.000;16.084;2023-02-17T04:52:59;21.50;;;16.07;;
1593;SDS011;790;47.000;16.084;2023-02-17T04:55:26;23.73;;;16.57;;
1593;SDS011;790;47.000;16.084;2023-02-17T04:57:54;24.03;;;17.10;;
1593;SDS011;790;47.000;16.084;2023-02-17T05:00:21;22.67;;;16.27;;
1593;SDS011;790;47.000;16.084;2023-02-17T05:02:50;21.30;;;15.90;;
1593;SDS011;790;47.000;16.084;2023-02-17T05:05:17;21.20;;;15.77;;
1593;SDS011;790;47.000;16.084;2023-02-17T05:07:45;21.00;;;16.47;;
1593;SDS011;790;47.000;16.084;2023-02-17T05:10:13;20.27;;;16.07;;
1593;SDS011;790;47.000;16.084;2023-02-17T05:12:41;22.77;;;17.33;;
1593;SDS011;790;47.000;16.084;2023-02-17T05:15:09;24.87;;;17.73;;
1593;SDS011;790;47.000;16.084;2023-02-17T05:17:37;23.90;;;18.53;;
1593;SDS011;790;47.000;16.084;2023-02-17T05:20:07;25.40;;;18.63;;
1593;SDS011;790;47.000;16.084;2023-02-17T05:22:35;23.20;;;16.73;;
1593;SDS011;790;47.000;16.084;2023-02-17T05:25:02;23.73;;;16.87;;
1593;SDS011;790;47.000;16.084;2023-02-17T05:27:29;23.27;;;17.70;;
1593;SDS011;790;47.000;16.084;2023-02-17T05:29:57;24.87;;;18.23;;
1593;SDS011;790;47.000;16.084;2023-02-17T05:32:24;31.07;;;20.87;;
1593;SDS011;790;47.000;16.084;2023-02-17T05:34:51;30.07;;;21.83;;
1593;SDS011;790;47.000;16.084;2023-02-17T05:37:20;26.93;;;19.67;;
1593;SDS011;790;47.000;16.084;2023-02-17T05:39:47;24.37;;;17.80;;
1593;SDS011;790;47.000;16.084;2023-02-17T05:42:14;23.97;;;17.43;;
1593;SDS011;790;47.000;16.084;2023-02-17T05:44:41;25.47;;;18.27;;
1593;SDS011;790;47.000;16.084;2023-02-17T05:47:08;22.00;;;17.60;;
1593;SDS011;790;47.000;16.084;2023-02-17T05:49:35;22.17;;;17.80;;
1593;SDS011;790;47.000;16.084;2023-02-17T05:52:03;24.17;;;19.03;;
1593;SDS011;790;47.000;16.084;2023-02-17T05:54:31;39.73;;;27.57;;
1593;SDS011;790;47.000;16.084;2023-02-17T05:56:59;40.63;;;28.27;;
1593;SDS011;790;47.000;16.084;2023-02-17T05:59:26;33.97;;;23.47;;
1593;SDS011;790;47.000;16.084;2023-02-17T06:01:53;33.23;;;24.53;;
1593;SDS011;790;47.000;16.084;2023-02-17T06:04:20;33.33;;;24.50;;
1593;SDS011;790;47.000;16.084;2023-02-17T06:06:47;40.70;;;28.27;;
1593;SDS011;790;47.000;16.084;2023-02-17T06:09:15;32.23;;;23.43;;
1593;SDS011;790;47.000;16.084;2023-02-17T06:11:44;36.67;;;26.30;;
1593;SDS011;790;47.000;16.084;2023-02-17T06:14:11;36.83;;;26.67;;
1593;SDS011;790;47.000;16.084;2023-02-17T06:16:38;40.30;;;28.70;;
1593;SDS011;790;47.000;16.084;2023-02-17T06:19:06;35.07;;;26.03;;
1593;SDS011;790;47.000;16.084;2023-02-17T06:21:34;39.73;;;28.20;;
1593;SDS011;790;47.000;16.084;2023-02-17T06:24:01;39.23;;;27.13;;
1593;SDS011;790;47.000;16.084;2023-02-17T06:26:28;38.37;;;27.33;;
1593;SDS011;790;47.000;16.084;2023-02-17T06:28:57;39.57;;;27.43;;
1593;SDS011;790;47.000;16.084;2023-02-17T06:31:24;30.93;;;22.40;;
1593;SDS011;790;47.000;16.084;2023-02-17T06:33:51;24.30;;;18.50;;
1593;SDS011;790;47.000;16.084;2023-02-17T06:36:19;23.07;;;18.40;;
1593;SDS011;790;47.000;16.084;2023-02-17T06:38:46;23.87;;;18.73;;
1593;SDS011;790;47.000;16.084;2023-02-17T06:41:13;22.17;;;16.80;;
1593;SDS011;790;47.000;16.084;2023-02-17T06:43:40;23.73;;;17.13;;
1593;SDS011;790;47.000;16.084;2023-02-17T06:46:08;21.10;;;16.23;;
1593;SDS011;790;47.000;16.084;2023-02-17T06:48:35;22.27;;;15.43;;
1593;SDS011;790;47.000;16.084;2023-02-17T06:51:03;20.03;;;16.10;;
1593;SDS011;790;47.000;16.084;2023-02-17T06:53:30;21.40;;;17.00;;
1593;SDS011;790;47.000;16.084;2023-02-17T06:55:57;23.73;;;16.50;;
1593;SDS011;790;47.000;16.084;2023-02-17T06:58:24;20.87;;;15.80;;
1593;SDS011;790;47.000;16.084;2023-02-17T07:00:52;17.93;;;13.97;;
1593;SDS011;790;47.000;16.084;2023-02-17T07:03:21;21.97;;;15.33;;
1593;SDS011;790;47.000;16.084;2023-02-17T07:05:48;23.43;;;16.13;;
1593;SDS011;790;47.000;16.084;2023-02-17T07:08:15;24.57;;;18.40;;
1593;SDS011;790;47.000;16.084;2023-02-17T07:10:43;26.90;;;19.37;;
1593;SDS011;790;47.000;16.084;2023-02-17T07:13:10;26.93;;;17.83;;
1593;SDS011;790;47.000;16.084;2023-02-17T07:15:38;25.53;;;18.97;;
1593;SDS011;790;47.000;16.084;2023-02-17T07:18:05;26.10;;;19.23;;
1593;SDS011;790;47.000;16.084;2023-02-17T07:20:33;35.03;;;23.20;;
1593;SDS011;790;47.000;16.084;2023-02-17T07:23:00;33.27;;;23.97;;
1593;SDS011;790;47.000;16.084;2023-02-17T07:25:28;53.37;;;37.93;;
1593;SDS011;790;47.000;16.084;2023-02-17T07:27:55;43.10;;;31.67;;
1593;SDS011;790;47.000;16.084;2023-02-17T07:30:25;50.40;;;32.23;;
1593;SDS011;790;47.000;16.084;2023-02-17T07:32:53;37.87;;;29.13;;
1593;SDS011;790;47.000;16.084;2023-02-17T07:35:20;33.60;;;24.73;;
1593;SDS011;790;47.000;16.084;2023-02-17T07:37:48;35.37;;;25.40;;
1593;SDS011;790;47.000;16.084;2023-02-17T07:40:16;32.40;;;23.00;;
1593;SDS011;790;47.000;16.084;2023-02-17T07:42:44;34.03;;;23.97;;
1593;SDS011;790;47.000;16.084;2023-02-17T07:45:11;32.10;;;23.37;;
1593;SDS011;790;47.000;16.084;2023-02-17T07:47:38;26.90;;;21.43;;
1593;SDS011;790;47.000;16.084;2023-02-17T07:50:06;28.27;;;21.10;;
1593;SDS011;790;47.000;16.084;2023-02-17T07:52:34;28.57;;;21.80;;
1593;SDS011;790;47.000;16.084;2023-02-17T07:55:03;31.27;;;21.20;;
1593;SDS011;790;47.000;16.084;2023-02-17T07:57:30;28.83;;;20.73;;
1593;SDS011;790;47.000;16.084;2023-02-17T07:59:58;29.00;;;20.17;;
1593;SDS011;790;47.000;16.084;2023-02-17T08:02:25;23.23;;;18.93;;
1593;SDS011;790;47.000;16.084;2023-02-17T08:04:52;27.17;;;20.03;;
1593;SDS011;790;47.000;16.084;2023-02-17T08:07:19;26.03;;;20.60;;
1593;SDS011;790;47.000;16.084;2023-02-17T08:09:46;25.37;;;18.50;;
1593;SDS011;790;47.000;16.084;2023-02-17T08:12:33;23.03;;;17.40;;
1593;SDS011;790;47.000;16.084;2023-02-17T08:15:33;22.93;;;18.47;;
1593;SDS011;790;47.000;16.084;2023-02-17T08:18:00;24.13;;;17.07;;
1593;SDS011;790;47.000;16.084;2023-02-17T08:20:31;23.40;;;17.13;;
1593;SDS011;790;47.000;16.084;2023-02-17T08:23:09;21.17;;;16.27;;
1593;SDS011;790;47.000;16.084;2023-02-17T08:25:42;20.73;;;15.63;;
1593;SDS011;790;47.000;16.084;2023-02-17T08:28:17;18.93;;;15.17;;
1593;SDS011;790;47.000;16.084;2023-02-17T08:30:51;19.30;;;14.50;;
1593;SDS011;790;47.000;16.084;2023-02-17T08:33:18;19.47;;;14.23;;
1593;SDS011;790;47.000;16.084;2023-02-17T08:35:47;22.30;;;14.77;;
1593;SDS011;790;47.000;16.084;2023-02-17T08:38:27;17.27;;;14.20;;
1593;SDS011;790;47.000;16.084;2023-02-17T08:40:58;16.13;;;12.73;;
1593;SDS011;790;47.000;16.084;2023-02-17T08:43:35;16.60;;;13.00;;
1593;SDS011;790;47.000;16.084;2023-02-17T08:46:08;17.33;;;12.73;;
1593;SDS011;790;47.000;16.084;2023-02-17T08:49:06;18.90;;;12.83;;
1593;SDS011;790;47.000;16.084;2023-02-17T08:51:44;19.63;;;12.47;;
1593;SDS011;790;47.000;16.084;2023-02-17T08:54:18;14.37;;;10.43;;
1593;SDS011;790;47.000;16.084;2023-02-17T08:57:04;15.63;;;8.83;;
1593;SDS011;790;47.000;16.084;2023-02-17T08:59:46;10.40;;;8.20;;
1593;SDS011;790;47.000;16.084;2023-02-17T09:02:23;13.37;;;8.57;;
1593;SDS011;790;47.000;16.084;2023-02-17T09:04:57;8.77;;;6.33;;
1593;SDS011;790;47.000;16.084;2023-02-17T09:07:26;7.67;;;5.73;;
1593;SDS011;790;47.000;16.084;2023-02-17T09:10:07;8.30;;;6.80;;
1593;SDS011;790;47.000;16.084;2023-02-17T09:12:57;10.47;;;5.60;;
1593;SDS011;790;47.000;16.084;2023-02-17T09:15:40;6.67;;;5.57;;
1593;SDS011;790;47.000;16.084;2023-02-17T09:18:23;6.33;;;5.67;;
1593;SDS011;790;47.000;16.084;2023-02-17T09:20:55;7.67;;;6.10;;
1593;SDS011;790;47.000;16.084;2023-02-17T09:23:37;6.43;;;5.00;;
1593;SDS011;790;47.000;16.084;2023-02-17T09:26:13;5.67;;;5.07;;
1593;SDS011;790;47.000;16.084;2023-02-17T09:28:48;6.93;;;5.03;;
1593;SDS011;790;47.000;16.084;2023-02-17T09:31:41;5.47;;;4.40;;
1593;SDS011;790;47.000;16.084;2023-02-17T09:34:20;5.40;;;4.17;;
1593;SDS011;790;47.000;16.084;2023-02-17T09:36:52;5.03;;;4.10;;
1593;SDS011;790;47.000;16.084;2023-02-17T09:39:24;4.67;;;4.17;;
1593;SDS011;790;47.000;16.084;2023-02-17T09:42:12;6.20;;;4.07;;
1593;SDS011;790;47.000;16.084;2023-02-17T09:44:50;4.47;;;4.07;;
1593;SDS011;790;47.000;16.084;2023-02-17T09:47:43;5.23;;;4.37;;
1593;SDS011;790;47.000;16.084;2023-02-17T09:50:18;4.63;;;4.10;;
1593;SDS011;790;47.000;16.084;2023-02-17T09:53:07;4.00;;;3.60;;
1593;SDS011;790;47.000;16.084;2023-02-17T09:56:02;4.60;;;3.53;;
1593;SDS011;790;47.000;16.084;2023-02-17T09:58:42;5.63;;;4.10;;
1593;SDS011;790;47.000;16.084;2023-02-17T10:01:34;6.67;;;3.97;;
1593;SDS011;790;47.000;16.084;2023-02-17T10:04:10;4.67;;;3.90;;
1593;SDS011;790;47.000;16.084;2023-02-17T10:06:47;5.93;;;4.30;;
1593;SDS011;790;47.000;16.084;2023-02-17T10:09:25;6.20;;;4.67;;
1593;SDS011;790;47.000;16.084;2023-02-17T10:12:11;5.27;;;4.77;;
1593;SDS011;790;47.000;16.084;2023-02-17T10:14:45;8.57;;;4.93;;
1593;SDS011;790;47.000;16.084;2023-02-17T10:17:39;5.87;;;4.27;;
1593;SDS011;790;47.000;16.084;2023-02-17T10:20:38;4.70;;;4.20;;
1593;SDS011;790;47.000;16.084;2023-02-17T10:23:15;5.63;;;5.07;;
1593;SDS011;790;47.000;16.084;2023-02-17T10:26:07;4.43;;;4.10;;
1593;SDS011;790;47.000;16.084;2023-02-17T10:29:03;5.37;;;4.90;;
1593;SDS011;790;47.000;16.084;2023-02-17T10:31:51;6.77;;;5.60;;
1593;SDS011;790;47.000;16.084;2023-02-17T10:34:31;9.80;;;5.53;;
1593;SDS011;790;47.000;16.084;2023-02-17T10:37:03;7.77;;;5.17;;
1593;SDS011;790;47.000;16.084;2023-02-17T10:39:41;5.93;;;5.00;;
1593;SDS011;790;47.000;16.084;2023-02-17T10:42:15;7.33;;;5.17;;
1593;SDS011;790;47.000;16.084;2023-02-17T10:44:47;8.00;;;5.80;;
1593;SDS011;790;47.000;16.084;2023-02-17T10:47:16;10.70;;;5.70;;
1593;SDS011;790;47.000;16.084;2023-02-17T10:49:44;7.40;;;5.23;;
1593;SDS011;790;47.000;16.084;2023-02-17T10:52:17;7.97;;;5.13;;
1593;SDS011;790;47.000;16.084;2023-02-17T10:54:47;8.27;;;5.10;;
1593;SDS011;790;47.000;16.084;2023-02-17T10:57:19;5.57;;;4.60;;
1593;SDS011;790;47.000;16.084;2023-02-17T10:59:49;5.40;;;4.73;;
1593;SDS011;790;47.000;16.084;2023-02-17T11:02:18;5.77;;;5.17;;
1593;SDS011;790;47.000;16.084;2023-02-17T11:04:48;6.50;;;4.33;;
1593;SDS011;790;47.000;16.084;2023-02-17T11:07:21;5.13;;;4.17;;
1593;SDS011;790;47.000;16.084;2023-02-17T11:09:57;5.07;;;4.57;;
1593;SDS011;790;47.000;16.084;2023-02-17T11:12:28;5.63;;;4.63;;
1593;SDS011;790;47.000;16.084;2023-02-17T11:14:59;6.83;;;4.87;;
1593;SDS011;790;47.000;16.084;2023-02-17T11:17:30;5.60;;;5.00;;
1593;SDS011;790;47.000;16.084;2023-02-17T11:20:02;5.17;;;3.77;;
1593;SDS011;790;47.000;16.084;2023-02-17T11:22:34;6.67;;;6.07;;
1593;SDS011;790;47.000;16.084;2023-02-17T11:25:06;8.00;;;7.20;;
1593;SDS011;790;47.000;16.084;2023-02-17T11:27:49;21.53;;;16.10;;
1593;SDS011;790;47.000;16.084;2023-02-17T11:30:17;12.33;;;9.40;;
1593;SDS011;790;47.000;16.084;2023-02-17T11:32:44;35.53;;;27.77;;
1593;SDS011;790;47.000;16.084;2023-02-17T11:35:22;9.63;;;8.07;;
1593;SDS011;790;47.000;16.084;2023-02-17T11:37:59;13.50;;;11.73;;
1593;SDS011;790;47.000;16.084;2023-02-17T11:40:27;6.10;;;5.50;;
1593;SDS011;790;47.000;16.084;2023-02-17T11:42:56;6.80;;;6.00;;
1593;SDS011;790;47.000;16.084;2023-02-17T11:45:25;9.33;;;5.60;;
1593;SDS011;790;47.000;16.084;2023-02-17T11:48:00;12.40;;;10.50;;
1593;SDS011;790;47.000;16.084;2023-02-17T11:50:43;7.53;;;4.83;;
1593;SDS011;790;47.000;16.084;2023-02-17T11:53:22;7.60;;;6.90;;
1593;SDS011;790;47.000;16.084;2023-02-17T11:56:04;6.47;;;5.87;;
1593;SDS011;790;47.000;16.084;2023-02-17T11:58:42;6.27;;;5.00;;
1593;SDS011;790;47.000;16.084;2023-02-17T12:01:38;5.27;;;4.87;;
1593;SDS011;790;47.000;16.084;2023-02-17T12:04:23;4.80;;;4.40;;
1593;SDS011;790;47.000;16.084;2023-02-17T12:07:10;7.10;;;4.57;;
1593;SDS011;790;47.000;16.084;2023-02-17T12:09:50;7.37;;;6.53;;
1593;SDS011;790;47.000;16.084;2023-02-17T12:12:28;6.30;;;5.70;;
1593;SDS011;790;47.000;16.084;2023-02-17T12:15:07;19.33;;;13.47;;
1593;SDS011;790;47.000;16.084;2023-02-17T12:17:50;13.33;;;9.80;;
1593;SDS011;790;47.000;16.084;2023-02-17T12:20:29;35.90;;;27.47;;
1593;SDS011;790;47.000;16.084;2023-02-17T12:23:05;12.50;;;9.80;;
1593;SDS011;790;47.000;16.084;2023-02-17T12:25:45;14.00;;;10.10;;
1593;SDS011;790;47.000;16.084;2023-02-17T12:28:28;11.03;;;7.33;;
1593;SDS011;790;47.000;16.084;2023-02-17T12:31:08;8.43;;;6.07;;
1593;SDS011;790;47.000;16.084;2023-02-17T12:33:47;7.50;;;5.57;;
1593;SDS011;790;47.000;16.084;2023-02-17T12:36:22;6.57;;;5.80;;
1593;SDS011;790;47.000;16.084;2023-02-17T12:38:56;5.73;;;5.10;;
1593;SDS011;790;47.000;16.084;2023-02-17T12:41:29;7.87;;;5.83;;
1593;SDS011;790;47.000;16.084;2023-02-17T12:44:01;8.47;;;6.70;;
1593;SDS011;790;47.000;16.084;2023-02-17T12:46:31;6.40;;;5.77;;
1593;SDS011;790;47.000;16.084;2023-02-17T12:49:04;8.67;;;5.90;;
1593;SDS011;790;47.000;16.084;2023-02-17T12:51:38;9.73;;;6.90;;
1593;SDS011;790;47.000;16.084;2023-02-17T12:54:09;8.63;;;6.93;;
1593;SDS011;790;47.000;16.084;2023-02-17T12:59:31;8.67;;;7.50;;
1593;SDS011;790;47.000;16.084;2023-02-17T13:02:00;8.63;;;6.63;;
1593;SDS011;790;47.000;16.084;2023-02-17T13:04:30;9.93;;;7.07;;
1593;SDS011;790;47.000;16.084;2023-02-17T13:07:01;8.53;;;6.40;;
1593;SDS011;790;47.000;16.084;2023-02-17T13:09:35;7.90;;;5.77;;
1593;SDS011;790;47.000;16.084;2023-02-17T13:12:15;7.80;;;5.93;;
1593;SDS011;790;47.000;16.084;2023-02-17T13:14:55;8.43;;;6.30;;
1593;SDS011;790;47.000;16.084;2023-02-17T13:17:25;6.63;;;6.00;;
1593;SDS011;790;47.000;16.084;2023-02-17T13:23:03;10.50;;;6.40;;
1593;SDS011;790;47.000;16.084;2023-02-17T13:25:33;8.03;;;6.00;;
1593;SDS011;790;47.000;16.084;2023-02-17T13:28:14;7.77;;;6.00;;
1593;SDS011;790;47.000;16.084;2023-02-17T13:30:44;6.77;;;6.07;;
1593;SDS011;790;47.000;16.084;2023-02-17T13:33:26;9.43;;;6.83;;
1593;SDS011;790;47.000;16.084;2023-02-17T13:35:54;7.63;;;6.83;;
1593;SDS011;790;47.000;16.084;2023-02-17T13:38:25;8.23;;;6.87;;
1593;SDS011;790;47.000;16.084;2023-02-17T13:40:56;7.40;;;6.63;;
1593;SDS011;790;47.000;16.084;2023-02-17T13:43:26;8.87;;;6.70;;
1593;SDS011;790;47.000;16.084;2023-02-17T13:45:57;8.40;;;7.60;;
1593;SDS011;790;47.000;16.084;2023-02-17T13:48:26;7.90;;;7.10;;
1593;SDS011;790;47.000;16.084;2023-02-17T13:50:55;11.73;;;7.90;;
1593;SDS011;790;47.000;16.084;2023-02-17T13:53:25;8.70;;;7.47;;
1593;SDS011;790;47.000;16.084;2023-02-17T13:55:54;8.97;;;7.47;;
1593;SDS011;790;47.000;16.084;2023-02-17T13:58:24;8.47;;;7.57;;
1593;SDS011;790;47.000;16.084;2023-02-17T14:00:55;11.70;;;8.40;;
1593;SDS011;790;47.000;16.084;2023-02-17T14:03:24;9.97;;;8.47;;
1593;SDS011;790;47.000;16.084;2023-02-17T14:05:54;13.20;;;9.50;;
1593;SDS011;790;47.000;16.084;2023-02-17T14:08:25;16.73;;;9.83;;
1593;SDS011;790;47.000;16.084;2023-02-17T14:10:58;13.90;;;10.07;;
1593;SDS011;790;47.000;16.084;2023-02-17T14:13:33;20.77;;;15.73;;
1593;SDS011;790;47.000;16.084;2023-02-17T14:16:01;17.43;;;13.07;;
1593;SDS011;790;47.000;16.084;2023-02-17T14:18:31;16.67;;;10.77;;
1593;SDS011;790;47.000;16.084;2023-02-17T14:21:04;12.57;;;10.83;;
1593;SDS011;790;47.000;16.084;2023-02-17T14:23:39;13.57;;;10.53;;
1593;SDS011;790;47.000;16.084;2023-02-17T14:26:09;14.67;;;11.30;;
1593;SDS011;790;47.000;16.084;2023-02-17T14:28:39;13.83;;;12.10;;
1593;SDS011;790;47.000;16.084;2023-02-17T14:31:24;16.50;;;10.97;;
1593;SDS011;790;47.000;16.084;2023-02-17T14:33:54;18.60;;;12.70;;
1593;SDS011;790;47.000;16.084;2023-02-17T14:36:27;15.73;;;12.67;;
1593;SDS011;790;47.000;16.084;2023-02-17T14:38:57;17.67;;;12.87;;
1593;SDS011;790;47.000;16.084;2023-02-17T14:41:25;20.43;;;16.57;;
1593;SDS011;790;47.000;16.084;2023-02-17T14:43:54;22.10;;;14.60;;
1593;SDS011;790;47.000;16.084;2023-02-17T14:46:22;18.73;;;13.07;;
1593;SDS011;790;47.000;16.084;2023-02-17T14:48:49;20.53;;;15.40;;
1593;SDS011;790;47.000;16.084;2023-02-17T14:51:17;28.77;;;21.83;;
1593;SDS011;790;47.000;16.084;2023-02-17T14:53:46;20.53;;;17.53;;
1593;SDS011;790;47.000;16.084;2023-02-17T14:56:16;22.57;;;17.17;;
1593;SDS011;790;47.000;16.084;2023-02-17T14:58:47;18.17;;;14.40;;
1593;SDS011;790;47.000;16.084;2023-02-17T15:01:17;22.63;;;18.73;;
1593;SDS011;790;47.000;16.084;2023-02-17T15:03:45;19.90;;;15.83;;
1593;SDS011;790;47.000;16.084;2023-02-17T15:06:13;19.43;;;16.03;;
1593;SDS011;790;47.000;16.084;2023-02-17T15:08:42;23.90;;;16.70;;
1593;SDS011;790;47.000;16.084;2023-02-17T15:11:13;25.87;;;16.40;;
1593;SDS011;790;47.000;16.084;2023-02-17T15:13:44;23.83;;;14.80;;
1593;SDS011;790;47.000;16.084;2023-02-17T15:16:12;21.97;;;15.00;;
1593;SDS011;790;47.000;16.084;2023-02-17T15:18:41;20.83;;;15.33;;
1593;SDS011;790;47.000;16.084;2023-02-17T15:23:58;20.07;;;14.63;;
1593;SDS011;790;47.000;16.084;2023-02-17T15:26:27;20.80;;;14.53;;
1593;SDS011;790;47.000;16.084;2023-02-17T15:28:55;18.77;;;14.30;;
1593;SDS011;790;47.000;16.084;2023-02-17T15:31:23;18.50;;;14.23;;
1593;SDS011;790;47.000;16.084;2023-02-17T15:33:57;24.57;;;13.43;;
1593;SDS011;790;47.000;16.084;2023-02-17T15:36:25;17.30;;;13.27;;